Time;durP1;ratioP1;P1;durP2;ratioP2;P2;SDS_P1;SDS_P2;PMS_P1;PMS_P2;Temp;Humidity;BMP_temperature;BMP_pressure;BME280_temperature;BME280_humidity;BME280_pressure;Samples;Min_cycle;Max_cycle;Signal;HPM_P1;HPM_P2
2022/06/25 00:01:59;;;;;;;2.50;2.27;;;20.90;77.70;;;;;;5059556;28;20177;-87
2022/06/25 00:07:09;;;;;;;3.20;2.60;;;20.90;78.10;;;;;;5058859;28;20200;-88
2022/06/25 00:09:34;;;;;;;7.47;2.63;;;20.90;77.50;;;;;;5046557;28;20424;-88
2022/06/25 00:14:44;;;;;;;6.67;2.57;;;20.90;76.10;;;;;;5064934;28;20208;-87
2022/06/25 00:17:10;;;;;;;3.73;2.40;;;20.90;73.70;;;;;;5040117;28;20439;-86
2022/06/25 00:19:36;;;;;;;2.73;2.53;;;20.90;75.40;;;;;;5023985;28;20209;-88
2022/06/25 00:22:02;;;;;;;4.97;2.53;;;20.90;74.70;;;;;;5041895;28;20423;-89
2022/06/25 00:24:27;;;;;;;4.47;2.70;;;20.80;75.70;;;;;;5049058;28;20419;-88
2022/06/25 00:26:53;;;;;;;4.57;2.77;;;20.80;74.80;;;;;;5045105;28;20466;-87
2022/06/25 00:29:19;;;;;;;4.20;2.47;;;20.90;73.00;;;;;;5053689;28;20178;-87
2022/06/25 00:31:45;;;;;;;4.00;2.60;;;20.90;72.90;;;;;;5039902;28;20184;-88
2022/06/25 00:34:10;;;;;;;3.17;2.60;;;20.80;74.70;;;;;;5040571;28;20177;-88
2022/06/25 00:36:36;;;;;;;2.73;2.50;;;20.80;75.90;;;;;;5024258;28;20288;-88
2022/06/25 00:39:03;;;;;;;3.60;2.57;;;20.70;75.70;;;;;;5051502;28;20223;-89
2022/06/25 00:41:29;;;;;;;3.90;3.10;;;20.70;74.00;;;;;;5093901;28;20183;-90
2022/06/25 00:43:54;;;;;;;2.63;2.20;;;20.70;74.70;;;;;;5066209;28;20478;-89
2022/06/25 00:46:20;;;;;;;6.43;2.87;;;20.60;75.70;;;;;;5074424;28;20451;-87
2022/06/25 00:48:46;;;;;;;3.07;2.70;;;20.70;75.30;;;;;;5054274;28;20181;-87
2022/06/25 00:51:14;;;;;;;4.17;2.20;;;20.60;74.20;;;;;;5048829;28;20186;-87
2022/06/25 00:53:44;;;;;;;2.60;2.40;;;20.70;73.40;;;;;;5029936;28;20186;-87
2022/06/25 00:56:12;;;;;;;2.73;2.00;;;20.60;74.60;;;;;;5021240;28;20535;-86
2022/06/25 00:58:43;;;;;;;2.70;2.20;;;20.60;73.60;;;;;;5017648;28;20983;-86
2022/06/25 01:01:10;;;;;;;3.47;2.60;;;20.60;73.10;;;;;;5018038;28;20930;-87
2022/06/25 01:03:36;;;;;;;3.00;2.57;;;20.60;72.90;;;;;;5020044;28;20478;-86
2022/06/25 01:06:02;;;;;;;4.50;2.60;;;20.60;72.10;;;;;;5020295;28;20487;-86
2022/06/25 01:08:30;;;;;;;2.30;2.10;;;20.60;72.00;;;;;;5029020;28;20439;-86
2022/06/25 01:10:57;;;;;;;4.10;2.30;;;20.50;72.50;;;;;;5058209;28;20520;-86
2022/06/25 01:13:23;;;;;;;9.10;2.60;;;20.50;73.30;;;;;;5059690;28;20420;-87
2022/06/25 01:15:49;;;;;;;2.10;1.90;;;20.40;73.30;;;;;;5063168;28;20545;-87
2022/06/25 01:18:16;;;;;;;4.43;1.80;;;20.40;72.60;;;;;;5048886;28;20470;-87
2022/06/25 01:20:44;;;;;;;4.10;2.57;;;20.40;72.10;;;;;;5070340;28;20480;-88
2022/06/25 01:23:13;;;;;;;2.88;2.65;;;20.50;72.10;;;;;;5049166;28;20423;-88
2022/06/25 01:25:40;;;;;;;3.97;2.47;;;20.50;71.20;;;;;;5044836;28;20173;-87
2022/06/25 01:28:07;;;;;;;3.30;2.27;;;20.40;71.60;;;;;;5024228;28;20272;-87
2022/06/25 01:30:34;;;;;;;4.13;2.43;;;20.40;71.40;;;;;;5039875;28;20516;-88
2022/06/25 01:33:05;;;;;;;2.87;2.20;;;20.40;71.90;;;;;;5042327;28;20447;-87
2022/06/25 01:35:31;;;;;;;2.40;2.20;;;20.40;71.40;;;;;;5044433;28;20425;-87
2022/06/25 01:37:57;;;;;;;3.13;2.60;;;20.40;71.00;;;;;;5040891;28;20487;-88
2022/06/25 01:40:23;;;;;;;4.10;2.63;;;20.30;71.70;;;;;;5040792;28;20265;-89
2022/06/25 01:42:58;;;;;;;3.30;2.67;;;20.20;71.80;;;;;;5058601;28;20170;-87
2022/06/25 01:45:28;;;;;;;5.88;2.80;;;20.20;72.50;;;;;;5041381;28;20428;-90
2022/06/25 01:47:54;;;;;;;4.15;2.45;;;20.20;73.10;;;;;;5041247;28;20188;-89
2022/06/25 01:50:20;;;;;;;2.97;2.67;;;20.20;72.60;;;;;;5041311;28;20185;-89
2022/06/25 01:52:46;;;;;;;5.85;3.03;;;20.20;72.20;;;;;;5025630;28;20174;-87
2022/06/25 01:55:13;;;;;;;3.42;2.65;;;20.20;72.20;;;;;;5018339;28;20184;-87
2022/06/25 01:57:39;;;;;;;3.10;2.80;;;20.20;72.10;;;;;;5018368;28;20240;-87
2022/06/25 02:00:08;;;;;;;5.00;2.97;;;20.20;72.00;;;;;;5019080;28;20264;-87
2022/06/25 02:02:34;;;;;;;3.60;3.30;;;20.20;72.20;;;;;;5035456;28;20252;-88
2022/06/25 02:05:01;;;;;;;5.22;3.10;;;20.10;74.10;;;;;;5055097;28;20192;-88
2022/06/25 02:07:26;;;;;;;3.17;2.88;;;20.00;75.20;;;;;;5042583;28;20197;-88
2022/06/25 02:09:54;;;;;;;4.70;3.13;;;20.00;76.30;;;;;;5038465;28;20185;-87
2022/06/25 02:12:20;;;;;;;3.90;2.53;;;20.00;74.00;;;;;;5040903;28;20237;-88
2022/06/25 02:14:45;;;;;;;3.80;2.60;;;20.00;74.30;;;;;;5053328;28;20181;-89
2022/06/25 02:17:11;;;;;;;4.43;2.70;;;20.00;74.00;;;;;;5056563;28;20201;-88
2022/06/25 02:19:37;;;;;;;4.23;2.80;;;20.00;73.10;;;;;;5062598;28;20201;-87
2022/06/25 02:22:03;;;;;;;3.33;2.50;;;20.10;72.20;;;;;;5040227;28;20422;-88
2022/06/25 02:24:29;;;;;;;3.50;2.50;;;20.10;71.70;;;;;;5040098;28;20200;-87
2022/06/25 02:26:55;;;;;;;3.90;2.70;;;20.00;71.50;;;;;;5041612;28;20460;-87
2022/06/25 02:29:20;;;;;;;2.50;2.30;;;20.10;72.30;;;;;;5054295;28;20181;-86
2022/06/25 02:31:47;;;;;;;4.30;2.43;;;20.10;71.80;;;;;;5037636;28;20423;-86
2022/06/25 02:34:12;;;;;;;8.05;2.95;;;20.00;71.10;;;;;;5057430;28;20227;-87
2022/06/25 02:36:38;;;;;;;4.37;2.47;;;19.90;73.30;;;;;;5038391;28;20204;-88
2022/06/25 02:39:04;;;;;;;5.40;2.77;;;19.90;73.70;;;;;;5050403;28;20200;-87
2022/06/25 02:41:30;;;;;;;3.30;3.00;;;19.90;74.50;;;;;;5047763;28;20177;-87
2022/06/25 02:43:55;;;;;;;3.20;2.67;;;19.90;73.70;;;;;;5049798;28;20169;-88
2022/06/25 02:46:21;;;;;;;3.27;2.97;;;19.80;73.80;;;;;;5050279;28;20264;-90
2022/06/25 02:48:47;;;;;;;4.83;3.10;;;19.80;74.30;;;;;;5051197;28;20304;-88
2022/06/25 02:51:12;;;;;;;8.40;4.37;;;19.80;74.40;;;;;;5048806;28;20196;-87
2022/06/25 02:53:38;;;;;;;4.50;3.23;;;19.80;74.00;;;;;;5039206;28;20611;-86
2022/06/25 02:58:58;;;;;;;3.97;3.25;;;19.90;72.70;;;;;;5045272;28;20687;-87
2022/06/25 03:01:26;;;;;;;7.85;3.80;;;19.90;72.70;;;;;;5036232;28;20181;-87
2022/06/25 03:03:52;;;;;;;5.73;3.90;;;19.90;73.60;;;;;;5034209;28;20188;-88
2022/06/25 03:06:19;;;;;;;5.68;4.10;;;19.80;73.90;;;;;;5063920;22;20962;-88
2022/06/25 03:08:45;;;;;;;5.80;3.42;;;19.90;73.10;;;;;;5052503;28;20173;-88
2022/06/25 03:11:11;;;;;;;4.35;3.08;;;19.90;71.50;;;;;;5052850;28;20177;-88
2022/06/25 03:13:37;;;;;;;3.43;3.13;;;20.00;71.80;;;;;;5052455;28;20177;-89
2022/06/25 03:16:04;;;;;;;5.30;3.07;;;19.90;71.40;;;;;;5043577;28;20194;-89
2022/06/25 03:18:30;;;;;;;3.67;2.85;;;19.80;71.40;;;;;;5016194;28;20463;-89
2022/06/25 03:20:55;;;;;;;5.93;3.40;;;20.00;71.90;;;;;;5016564;28;20227;-90
2022/06/25 03:23:22;;;;;;;6.50;2.60;;;20.00;71.10;;;;;;5016208;28;20174;-88
2022/06/25 03:25:48;;;;;;;4.53;2.83;;;20.00;71.30;;;;;;5016067;28;20205;-89
2022/06/25 03:28:15;;;;;;;7.03;3.50;;;20.00;71.70;;;;;;5015124;28;20182;-88
2022/06/25 03:30:40;;;;;;;3.05;2.75;;;19.90;72.10;;;;;;5015653;28;20551;-89
2022/06/25 03:33:06;;;;;;;4.57;3.00;;;20.00;71.90;;;;;;5015707;28;20194;-88
2022/06/25 03:35:32;;;;;;;7.70;3.67;;;20.00;71.70;;;;;;5013137;28;20285;-89
2022/06/25 03:37:58;;;;;;;8.97;3.30;;;20.00;71.20;;;;;;5012274;28;20245;-89
2022/06/25 03:40:23;;;;;;;6.53;3.10;;;20.00;72.00;;;;;;5034390;28;20204;-89
2022/06/25 03:42:49;;;;;;;4.47;2.87;;;19.90;72.60;;;;;;5017000;28;20170;-88
2022/06/25 03:52:53;;;;;;;4.20;2.93;;;19.90;73.20;;;;;;5054126;28;20212;-90
2022/06/25 03:55:19;;;;;;;5.20;2.80;;;19.90;73.30;;;;;;5037404;28;20443;-89
2022/06/25 03:57:45;;;;;;;6.27;2.50;;;19.80;73.20;;;;;;5036601;28;20208;-89
2022/06/25 04:00:12;;;;;;;3.10;2.73;;;19.80;74.40;;;;;;5055111;28;20177;-89
2022/06/25 04:02:44;;;;;;;4.78;3.25;;;19.80;75.30;;;;;;5055077;28;20557;-91
2022/06/25 04:31:05;;;;;;;5.73;2.47;;;20.40;71.70;;;;;;5054762;28;20804;-91
2022/06/25 04:33:30;;;;;;;2.93;2.53;;;20.50;71.70;;;;;;5037063;28;20419;-91
2022/06/25 04:35:56;;;;;;;4.83;2.53;;;20.60;70.60;;;;;;5036371;28;20239;-91
2022/06/25 04:38:22;;;;;;;3.43;2.90;;;20.60;70.30;;;;;;5053782;28;20189;-91
2022/06/25 04:40:47;;;;;;;5.53;2.20;;;20.60;70.70;;;;;;5036593;28;20205;-90
2022/06/25 04:43:13;;;;;;;5.37;2.37;;;20.70;70.50;;;;;;5039865;28;20173;-90
2022/06/25 04:45:39;;;;;;;2.73;2.20;;;20.70;70.50;;;;;;5039320;28;20347;-91
2022/06/25 04:48:05;;;;;;;2.13;1.90;;;20.80;70.90;;;;;;5038488;28;20953;-91
2022/06/25 04:50:31;;;;;;;6.07;2.70;;;20.90;70.50;;;;;;5038733;28;20209;-91
2022/06/25 04:52:57;;;;;;;4.20;2.20;;;21.00;69.30;;;;;;5037897;28;20415;-91
2022/06/25 04:55:23;;;;;;;2.90;1.83;;;20.90;70.60;;;;;;5005682;28;20213;-91
2022/06/25 04:57:48;;;;;;;3.90;2.10;;;20.90;70.50;;;;;;5022127;28;20193;-91
2022/06/25 05:00:14;;;;;;;4.10;2.00;;;20.90;70.50;;;;;;5020121;28;20523;-90
2022/06/25 05:02:40;;;;;;;3.93;2.00;;;21.00;70.80;;;;;;5017036;28;20518;-90
2022/06/25 05:05:07;;;;;;;3.77;1.70;;;20.90;71.20;;;;;;5016607;28;20413;-90
2022/06/25 05:07:34;;;;;;;3.30;1.70;;;21.10;70.40;;;;;;5016477;28;20765;-90
2022/06/25 05:09:59;;;;;;;2.63;1.80;;;21.20;69.20;;;;;;5018131;28;20471;-90
2022/06/25 05:15:10;;;;;;;2.57;1.50;;;21.20;69.20;;;;;;5054834;28;20171;-90
2022/06/25 05:17:36;;;;;;;5.00;1.63;;;21.20;69.00;;;;;;5052808;28;20535;-91
2022/06/25 05:20:02;;;;;;;2.53;1.87;;;21.20;69.20;;;;;;5052824;28;20558;-91
2022/06/25 05:22:27;;;;;;;2.07;1.83;;;21.20;69.80;;;;;;5052843;28;20185;-90
2022/06/25 05:24:53;;;;;;;4.43;2.07;;;21.20;69.20;;;;;;5048639;28;20421;-90
2022/06/25 05:27:24;;;;;;;3.07;1.73;;;21.30;68.70;;;;;;5034039;28;20198;-90
2022/06/25 05:30:10;;;;;;;5.00;1.70;;;21.30;69.10;;;;;;5016989;28;20185;-90
2022/06/25 05:32:37;;;;;;;3.73;1.60;;;21.30;68.90;;;;;;5037308;28;20531;-89
2022/06/25 05:35:04;;;;;;;2.27;1.83;;;21.30;68.30;;;;;;5015890;28;20427;-89
2022/06/25 05:37:29;;;;;;;4.60;2.60;;;21.40;68.70;;;;;;5033154;28;20184;-90
2022/06/25 05:39:55;;;;;;;2.07;1.70;;;21.40;68.30;;;;;;5036996;28;20466;-90
2022/06/25 05:42:22;;;;;;;4.10;2.03;;;21.60;67.80;;;;;;5037308;28;20187;-89
2022/06/25 05:44:48;;;;;;;5.07;2.50;;;21.50;67.90;;;;;;5035299;28;20173;-90
2022/06/25 05:47:14;;;;;;;4.47;3.00;;;21.60;68.30;;;;;;5035841;28;20462;-89
2022/06/25 05:49:40;;;;;;;7.53;3.03;;;21.80;66.90;;;;;;5035023;28;20474;-90
2022/06/25 05:52:06;;;;;;;5.50;3.43;;;21.90;65.60;;;;;;5036331;28;20506;-89
2022/06/25 05:54:32;;;;;;;5.07;2.70;;;21.90;65.80;;;;;;5036262;28;20861;-89
2022/06/25 05:57:07;;;;;;;4.83;2.90;;;21.80;67.10;;;;;;5034884;28;20958;-89
2022/06/25 05:59:39;;;;;;;5.57;3.67;;;21.80;66.70;;;;;;4977413;28;20484;-90
2022/06/25 06:02:07;;;;;;;3.30;3.00;;;21.80;66.60;;;;;;4974912;28;20643;-89
2022/06/25 06:04:33;;;;;;;5.17;3.13;;;21.70;67.20;;;;;;4958026;28;20954;-90
2022/06/25 06:07:00;;;;;;;8.40;3.40;;;21.60;66.50;;;;;;4990600;28;20450;-90
2022/06/25 06:09:31;;;;;;;6.13;3.30;;;21.50;67.50;;;;;;4974984;28;20423;-89
2022/06/25 06:11:58;;;;;;;8.73;4.73;;;21.40;67.40;;;;;;4989539;28;20465;-89
2022/06/25 06:14:23;;;;;;;7.40;4.00;;;21.40;68.10;;;;;;4974276;28;20425;-90
2022/06/25 06:16:49;;;;;;;6.57;4.20;;;21.40;67.80;;;;;;4973992;28;20454;-90
2022/06/25 06:19:15;;;;;;;9.90;4.20;;;21.40;68.00;;;;;;4975348;28;20306;-93
2022/06/25 06:21:41;;;;;;;7.13;3.60;;;21.40;68.20;;;;;;4975324;28;20183;-91
2022/06/25 06:24:07;;;;;;;5.37;4.03;;;21.40;69.10;;;;;;4974787;28;20891;-91
2022/06/25 06:26:33;;;;;;;5.70;3.37;;;21.40;68.10;;;;;;4974449;28;20461;-90
2022/06/25 06:28:59;;;;;;;9.27;4.20;;;21.50;68.00;;;;;;4972875;28;20183;-89
2022/06/25 06:31:25;;;;;;;7.20;3.70;;;21.40;68.70;;;;;;5025144;28;20432;-91
2022/06/25 06:33:51;;;;;;;7.10;3.83;;;21.40;69.00;;;;;;5016571;28;20185;-92
2022/06/25 06:36:16;;;;;;;4.53;3.50;;;21.60;68.40;;;;;;5046178;28;20209;-92
2022/06/25 06:38:43;;;;;;;6.43;3.83;;;21.50;68.90;;;;;;5028905;28;20194;-91
2022/06/25 06:41:24;;;;;;;5.77;4.37;;;21.60;68.10;;;;;;5016037;28;20556;-91
2022/06/25 06:43:50;;;;;;;5.20;3.23;;;21.60;68.70;;;;;;4999649;28;20424;-91
2022/06/25 06:46:16;;;;;;;4.57;2.93;;;21.70;68.50;;;;;;5014602;28;20458;-91
2022/06/25 06:48:41;;;;;;;5.53;3.10;;;21.90;67.00;;;;;;5014219;28;20585;-92
2022/06/25 06:51:07;;;;;;;5.30;3.20;;;22.20;66.90;;;;;;5014867;28;20555;-91
2022/06/25 06:53:34;;;;;;;3.43;2.60;;;22.50;66.30;;;;;;5014287;28;20641;-92
2022/06/25 06:56:00;;;;;;;2.33;2.00;;;22.70;66.40;;;;;;5014063;28;20475;-90
2022/06/25 06:58:30;;;;;;;5.57;2.30;;;23.20;63.40;;;;;;5014523;28;20536;-90
2022/06/25 07:00:58;;;;;;;5.17;2.90;;;23.30;62.20;;;;;;5032783;28;20920;-90
2022/06/25 07:03:24;;;;;;;4.80;2.50;;;23.50;61.70;;;;;;5014391;28;20471;-91
2022/06/25 07:05:50;;;;;;;5.63;2.50;;;23.50;60.90;;;;;;5031843;28;20487;-91
2022/06/25 07:08:16;;;;;;;2.70;2.17;;;23.30;62.10;;;;;;5031474;28;20440;-91
2022/06/25 07:10:42;;;;;;;3.60;1.90;;;23.30;61.00;;;;;;5014312;28;20186;-91
2022/06/25 07:13:16;;;;;;;3.50;2.20;;;23.10;62.70;;;;;;5026624;28;20521;-91
2022/06/25 07:15:41;;;;;;;3.23;2.20;;;23.00;63.30;;;;;;5033841;28;20212;-90
2022/06/25 07:18:07;;;;;;;6.03;2.20;;;22.80;64.20;;;;;;5050748;28;20435;-90
2022/06/25 07:20:34;;;;;;;3.43;2.43;;;22.60;64.80;;;;;;5033543;28;20264;-91
2022/06/25 07:23:00;;;;;;;3.17;2.73;;;22.60;64.70;;;;;;5036894;28;21093;-91
2022/06/25 07:25:25;;;;;;;6.27;2.90;;;22.70;63.00;;;;;;5038846;28;20435;-91
2022/06/25 07:27:51;;;;;;;4.20;2.60;;;22.70;62.80;;;;;;5037539;28;20629;-91
2022/06/25 07:30:17;;;;;;;3.77;2.60;;;22.80;62.00;;;;;;5021497;28;20649;-92
2022/06/25 07:32:43;;;;;;;3.93;2.73;;;22.80;62.50;;;;;;5038056;28;20181;-92
2022/06/25 07:35:09;;;;;;;3.13;2.83;;;23.00;61.70;;;;;;5038021;28;20177;-91
2022/06/25 07:37:35;;;;;;;3.73;2.80;;;23.00;60.50;;;;;;5036943;28;20506;-90
2022/06/25 07:40:01;;;;;;;4.10;3.20;;;22.90;63.50;;;;;;5021290;28;20448;-92
2022/06/25 07:42:30;;;;;;;4.33;3.10;;;23.00;64.10;;;;;;5036120;28;20408;-91
2022/06/25 07:44:56;;;;;;;3.73;2.63;;;23.20;63.00;;;;;;5018064;28;20519;-92
2022/06/25 07:47:21;;;;;;;5.00;2.87;;;23.60;60.30;;;;;;5018137;28;20623;-91
2022/06/25 07:52:32;;;;;;;3.33;2.27;;;23.80;58.90;;;;;;5036475;28;20189;-91
2022/06/25 07:54:57;;;;;;;2.90;2.20;;;23.80;58.70;;;;;;5018082;28;20417;-91
2022/06/25 07:57:23;;;;;;;4.43;2.00;;;23.80;58.70;;;;;;5018316;28;20447;-91
2022/06/25 07:59:48;;;;;;;3.10;1.80;;;23.80;58.70;;;;;;5017395;28;20201;-91
2022/06/25 08:02:14;;;;;;;2.73;1.93;;;23.50;61.70;;;;;;5017659;28;20634;-91
2022/06/25 08:04:47;;;;;;;3.20;2.23;;;23.50;61.40;;;;;;5017709;28;20178;-91
2022/06/25 08:07:13;;;;;;;3.40;2.13;;;23.50;61.40;;;;;;5017451;28;20208;-91
2022/06/25 08:09:38;;;;;;;2.90;2.20;;;23.50;61.00;;;;;;5017416;28;20421;-90
2022/06/25 08:12:04;;;;;;;2.20;2.00;;;23.60;60.00;;;;;;5017748;28;20178;-89
2022/06/25 08:14:30;;;;;;;5.50;2.03;;;23.80;59.20;;;;;;5001870;28;20181;-89
2022/06/25 08:16:56;;;;;;;3.47;2.57;;;23.80;58.90;;;;;;5017061;28;20951;-89
2022/06/25 08:19:22;;;;;;;3.10;1.93;;;23.80;58.50;;;;;;5017529;28;20228;-89
2022/06/25 08:21:48;;;;;;;3.13;2.40;;;23.80;59.00;;;;;;5035432;28;20174;-91
2022/06/25 08:24:13;;;;;;;2.90;1.93;;;23.60;59.60;;;;;;5017570;28;20419;-90
2022/06/25 08:26:39;;;;;;;5.00;2.43;;;23.40;60.30;;;;;;5016652;28;20205;-90
2022/06/25 08:29:05;;;;;;;6.47;2.60;;;23.30;61.80;;;;;;5017821;28;20181;-90
2022/06/25 08:31:30;;;;;;;5.83;2.30;;;23.10;64.60;;;;;;5017572;28;20173;-90
2022/06/25 08:33:56;;;;;;;3.87;2.20;;;22.90;65.30;;;;;;5001213;28;20189;-90
2022/06/25 08:36:22;;;;;;;3.83;2.30;;;22.80;65.50;;;;;;5045134;28;20227;-90
2022/06/25 08:38:48;;;;;;;4.13;2.00;;;22.90;65.30;;;;;;5036249;28;20193;-90
2022/06/25 08:41:14;;;;;;;3.10;1.90;;;22.60;66.40;;;;;;5055287;28;20303;-90
2022/06/25 08:43:41;;;;;;;3.67;1.87;;;22.40;67.20;;;;;;5037054;28;20412;-91
2022/06/25 08:46:07;;;;;;;2.33;1.90;;;22.40;67.90;;;;;;5036897;28;20597;-91
2022/06/25 08:48:35;;;;;;;4.27;2.80;;;22.40;68.20;;;;;;5054726;28;20898;-91
2022/06/25 08:51:04;;;;;;;4.30;2.70;;;22.40;68.40;;;;;;5037195;28;20707;-92
2022/06/25 08:53:32;;;;;;;3.27;2.97;;;22.30;68.40;;;;;;5036704;28;20422;-91
2022/06/25 08:56:06;;;;;;;4.73;3.20;;;22.10;69.00;;;;;;5037649;28;20478;-91
2022/06/25 08:58:32;;;;;;;5.53;3.77;;;21.90;70.50;;;;;;5059904;28;20817;-91
2022/06/25 09:00:58;;;;;;;4.40;3.67;;;21.60;70.80;;;;;;5039036;28;20441;-90
2022/06/25 09:03:25;;;;;;;4.73;3.33;;;21.40;71.80;;;;;;5054450;28;20903;-90
2022/06/25 09:05:50;;;;;;;4.27;3.03;;;21.30;73.20;;;;;;5054023;28;20189;-90
2022/06/25 09:08:16;;;;;;;5.33;3.43;;;21.30;74.40;;;;;;5040420;28;20487;-90
2022/06/25 09:10:55;;;;;;;3.40;3.10;;;21.30;76.00;;;;;;5040830;28;20708;-90
2022/06/25 09:13:25;;;;;;;5.53;4.27;;;21.10;76.50;;;;;;5036189;28;20177;-90
2022/06/25 09:15:51;;;;;;;4.80;3.30;;;21.10;78.50;;;;;;5053941;28;20480;-89
2022/06/25 09:18:21;;;;;;;5.80;4.47;;;21.10;79.10;;;;;;5035266;28;20459;-90
2022/06/25 09:20:57;;;;;;;5.20;4.70;;;21.20;79.60;;;;;;5036121;28;20181;-91
2022/06/25 09:23:23;;;;;;;7.60;4.17;;;21.30;79.10;;;;;;5035809;28;20540;-90
2022/06/25 09:26:09;;;;;;;8.10;4.23;;;21.40;76.90;;;;;;5035380;28;20448;-91
2022/06/25 09:28:37;;;;;;;8.13;4.60;;;21.40;75.10;;;;;;5053275;28;20533;-91
2022/06/25 09:31:03;;;;;;;8.03;4.80;;;21.40;74.40;;;;;;5036053;28;20420;-91
2022/06/25 09:33:31;;;;;;;5.80;4.47;;;21.60;73.70;;;;;;5035787;28;20412;-90
2022/06/25 09:35:57;;;;;;;6.07;4.30;;;21.80;72.70;;;;;;5036162;28;20592;-90
2022/06/25 09:38:24;;;;;;;6.23;4.00;;;21.70;71.20;;;;;;5035351;28;20451;-90
2022/06/25 09:40:58;;;;;;;8.80;4.90;;;21.90;71.10;;;;;;5054669;28;20526;-90
2022/06/25 09:43:26;;;;;;;7.03;4.60;;;22.10;70.60;;;;;;5022372;28;20865;-90
2022/06/25 09:45:53;;;;;;;7.90;4.63;;;22.30;69.70;;;;;;5015478;28;20445;-90
2022/06/25 09:48:29;;;;;;;6.60;4.60;;;22.30;68.60;;;;;;5032837;28;20413;-90
2022/06/25 09:51:13;;;;;;;6.70;4.03;;;22.30;68.60;;;;;;5033169;28;20416;-90
2022/06/25 09:53:48;;;;;;;4.73;4.20;;;22.80;66.70;;;;;;5016472;28;20503;-90
2022/06/25 09:56:17;;;;;;;6.77;5.40;;;23.10;64.70;;;;;;5031405;28;20898;-88
2022/06/25 09:58:44;;;;;;;6.20;3.73;;;23.30;63.20;;;;;;5015616;28;20456;-88
2022/06/25 10:01:15;;;;;;;5.80;4.17;;;23.40;64.20;;;;;;5031793;28;20413;-89
2022/06/25 10:03:42;;;;;;;9.10;4.70;;;23.50;63.60;;;;;;5015388;28;20413;-89
2022/06/25 10:06:09;;;;;;;8.10;4.90;;;23.40;63.70;;;;;;5031754;28;20436;-89
2022/06/25 10:08:35;;;;;;;7.00;4.83;;;23.40;63.70;;;;;;5031037;28;20551;-89
2022/06/25 10:11:03;;;;;;;12.30;4.30;;;23.30;63.50;;;;;;5031621;28;20932;-89
2022/06/25 10:13:29;;;;;;;6.33;4.23;;;23.80;61.20;;;;;;5032370;28;20474;-89
2022/06/25 10:15:56;;;;;;;8.57;4.40;;;24.30;58.90;;;;;;5036128;28;20527;-89
2022/06/25 10:18:24;;;;;;;3.80;3.33;;;24.50;59.20;;;;;;5053766;28;20463;-89
2022/06/25 10:20:50;;;;;;;4.07;3.00;;;24.20;60.70;;;;;;5040776;28;20443;-89
2022/06/25 10:23:19;;;;;;;7.60;3.13;;;24.60;57.70;;;;;;5042551;28;20419;-89
2022/06/25 10:25:46;;;;;;;4.60;2.90;;;24.90;56.60;;;;;;5044453;28;20484;-89
2022/06/25 10:28:14;;;;;;;3.97;2.53;;;25.00;55.40;;;;;;5044762;28;20923;-89
2022/06/25 10:30:48;;;;;;;5.40;2.70;;;24.80;57.40;;;;;;5016389;28;20435;-89
2022/06/25 10:33:21;;;;;;;4.20;2.20;;;24.70;58.40;;;;;;5021122;28;20510;-89
2022/06/25 10:35:51;;;;;;;3.80;2.43;;;24.30;59.10;;;;;;5021933;28;20450;-90
2022/06/25 10:38:22;;;;;;;6.53;2.50;;;24.30;59.90;;;;;;5020388;28;20448;-90
2022/06/25 10:40:58;;;;;;;3.90;2.20;;;24.20;59.90;;;;;;5034732;28;20456;-89
2022/06/25 10:43:37;;;;;;;8.67;2.77;;;24.60;58.20;;;;;;5034990;28;20512;-90
2022/06/25 10:46:23;;;;;;;4.27;2.77;;;25.10;55.00;;;;;;5034987;28;20478;-90
2022/06/25 10:48:54;;;;;;;5.40;3.40;;;25.30;53.40;;;;;;5034914;28;20462;-90
2022/06/25 10:51:50;;;;;;;3.63;2.23;;;25.40;52.80;;;;;;5032144;28;20429;-90
2022/06/25 10:54:25;;;;;;;5.60;2.80;;;25.10;55.50;;;;;;5004563;28;20501;-90
2022/06/25 10:56:57;;;;;;;3.77;2.50;;;25.20;55.30;;;;;;5021066;28;20441;-89
2022/06/25 10:59:35;;;;;;;5.10;2.87;;;24.90;56.70;;;;;;5040224;28;20501;-89
2022/06/25 11:02:09;;;;;;;4.83;2.20;;;24.90;56.60;;;;;;5044113;28;20918;-88
2022/06/25 11:04:36;;;;;;;5.10;3.80;;;25.10;55.90;;;;;;5039301;28;20410;-89
2022/06/25 11:07:12;;;;;;;3.20;2.60;;;25.40;53.30;;;;;;5023173;28;20439;-89
2022/06/25 11:09:39;;;;;;;3.07;2.77;;;25.70;51.70;;;;;;5039266;28;20419;-90
2022/06/25 11:12:08;;;;;;;3.60;2.80;;;25.70;52.90;;;;;;5022231;28;20432;-88
2022/06/25 11:14:41;;;;;;;5.30;2.77;;;25.70;54.80;;;;;;5019126;28;20429;-88
2022/06/25 11:17:08;;;;;;;6.00;3.30;;;25.70;54.70;;;;;;5033125;28;20509;-89
2022/06/25 11:19:34;;;;;;;3.10;2.80;;;25.90;51.70;;;;;;5018368;28;20471;-89
2022/06/25 11:22:03;;;;;;;10.40;2.73;;;25.50;53.40;;;;;;5018632;28;20482;-89
2022/06/25 11:24:30;;;;;;;8.43;3.57;;;25.60;54.10;;;;;;5018574;28;20550;-88
2022/06/25 11:29:51;;;;;;;3.10;2.90;;;24.90;56.00;;;;;;5056219;28;20833;-89
2022/06/25 11:32:26;;;;;;;8.60;2.90;;;25.30;55.50;;;;;;5037953;28;20787;-89
2022/06/25 11:34:57;;;;;;;6.00;2.90;;;25.70;52.00;;;;;;5056087;28;20423;-89
2022/06/25 11:37:24;;;;;;;3.30;2.70;;;25.20;54.10;;;;;;5036643;28;20449;-90
2022/06/25 11:39:50;;;;;;;4.80;2.83;;;24.90;55.70;;;;;;5055108;28;20481;-89
2022/06/25 11:42:17;;;;;;;2.50;2.30;;;24.70;56.70;;;;;;5037505;28;21073;-89
2022/06/25 11:44:45;;;;;;;2.60;2.40;;;24.70;56.70;;;;;;5023065;28;20927;-89
2022/06/25 11:47:19;;;;;;;3.50;3.00;;;24.80;56.70;;;;;;5017246;28;20454;-90
2022/06/25 11:49:46;;;;;;;2.93;2.30;;;24.50;57.00;;;;;;5002255;28;20425;-89
2022/06/25 11:52:13;;;;;;;2.37;2.17;;;24.70;55.50;;;;;;5035150;28;20446;-90
2022/06/25 11:55:27;;;;;;;3.87;2.37;;;24.80;56.00;;;;;;5017470;28;20482;-89
2022/06/25 11:57:57;;;;;;;7.17;3.10;;;24.80;56.90;;;;;;5028302;28;20509;-90
2022/06/25 12:00:23;;;;;;;6.43;2.67;;;24.90;56.50;;;;;;5023136;28;20464;-90
2022/06/25 12:03:12;;;;;;;5.70;3.40;;;24.80;59.00;;;;;;5040261;28;20415;-90
2022/06/25 12:05:37;;;;;;;3.03;2.50;;;24.40;61.20;;;;;;5027210;28;20443;-90
2022/06/25 12:08:04;;;;;;;8.50;7.00;;;24.70;58.40;;;;;;5055821;28;20783;-90
2022/06/25 12:10:38;;;;;;;5.03;3.57;;;25.10;55.00;;;;;;5038765;28;20186;-90
2022/06/25 12:13:03;;;;;;;5.03;3.33;;;25.40;53.60;;;;;;5020973;28;20455;-90
2022/06/25 12:15:30;;;;;;;3.83;3.37;;;25.50;52.50;;;;;;5037387;28;20450;-90
2022/06/25 12:18:05;;;;;;;3.50;2.97;;;25.40;51.40;;;;;;5037532;28;20649;-90
2022/06/25 12:20:32;;;;;;;3.93;2.53;;;25.40;52.20;;;;;;5038487;28;20501;-89
2022/06/25 12:22:58;;;;;;;3.50;3.13;;;25.30;53.40;;;;;;5037593;28;20431;-90
2022/06/25 12:25:32;;;;;;;8.83;2.93;;;25.40;52.30;;;;;;5020740;28;20439;-90
2022/06/25 12:27:58;;;;;;;4.50;2.67;;;25.40;51.50;;;;;;5037651;28;20443;-90
2022/06/25 12:30:31;;;;;;;8.53;3.10;;;25.30;52.10;;;;;;5038144;28;20456;-90
2022/06/25 12:33:13;;;;;;;4.03;2.33;;;25.20;52.20;;;;;;5020751;28;20423;-91
2022/06/25 12:35:43;;;;;;;3.50;2.80;;;25.10;53.40;;;;;;5040244;28;20579;-90
2022/06/25 12:38:14;;;;;;;5.17;2.80;;;25.10;52.50;;;;;;5036502;28;20458;-90
2022/06/25 12:40:41;;;;;;;4.23;2.60;;;25.00;52.90;;;;;;5017419;28;20959;-90
2022/06/25 12:43:09;;;;;;;6.63;2.70;;;25.00;53.50;;;;;;5035146;28;20413;-91
2022/06/25 12:45:35;;;;;;;3.53;2.57;;;24.90;53.40;;;;;;5034997;28;20448;-90
2022/06/25 12:48:02;;;;;;;5.23;2.60;;;24.80;55.50;;;;;;5033904;28;20554;-90
2022/06/25 12:50:30;;;;;;;4.03;3.00;;;24.60;58.00;;;;;;5016750;28;20429;-91
2022/06/25 12:53:15;;;;;;;2.50;2.30;;;24.40;58.50;;;;;;5034415;28;20504;-90
2022/06/25 12:55:45;;;;;;;2.83;2.20;;;24.00;59.70;;;;;;5016604;28;20463;-90
2022/06/25 12:58:21;;;;;;;5.37;2.73;;;23.70;60.80;;;;;;5028509;28;20487;-90
2022/06/25 13:00:47;;;;;;;3.20;2.90;;;23.50;64.50;;;;;;5036112;28;20511;-89
2022/06/25 13:03:13;;;;;;;2.80;2.23;;;23.20;66.50;;;;;;5036786;28;20462;-90
2022/06/25 13:05:39;;;;;;;3.40;2.37;;;23.00;68.40;;;;;;5036217;28;20467;-90
2022/06/25 13:08:05;;;;;;;5.73;3.10;;;22.90;68.00;;;;;;5053322;28;20908;-90
2022/06/25 13:10:32;;;;;;;4.90;3.33;;;22.90;68.30;;;;;;5035963;28;20581;-90
2022/06/25 13:12:58;;;;;;;6.30;3.63;;;22.80;68.20;;;;;;5036158;28;20412;-90
2022/06/25 13:15:35;;;;;;;4.60;2.67;;;23.00;67.90;;;;;;5036276;28;21047;-90
2022/06/25 13:18:01;;;;;;;7.97;2.90;;;23.00;67.70;;;;;;5035394;28;20408;-90
2022/06/25 13:20:27;;;;;;;5.60;3.13;;;22.90;67.20;;;;;;5035967;28;20462;-90
2022/06/25 13:22:52;;;;;;;3.70;2.57;;;22.80;66.20;;;;;;5035959;28;20416;-90
2022/06/25 13:25:18;;;;;;;4.10;3.10;;;22.90;67.40;;;;;;5036515;28;20581;-90
2022/06/25 13:27:46;;;;;;;5.47;2.93;;;23.00;67.70;;;;;;5035086;28;20215;-90
2022/06/25 13:30:12;;;;;;;7.77;2.70;;;23.00;66.00;;;;;;5036062;28;20177;-89
2022/06/25 13:32:39;;;;;;;3.67;2.10;;;23.00;64.80;;;;;;5035648;28;20419;-89
2022/06/25 13:35:06;;;;;;;3.60;2.30;;;22.90;65.50;;;;;;5035551;28;20451;-90
2022/06/25 13:37:32;;;;;;;3.10;1.80;;;23.00;65.00;;;;;;5035525;28;20430;-89
2022/06/25 13:39:58;;;;;;;5.73;1.80;;;23.20;65.00;;;;;;5035570;28;21009;-89
2022/06/25 13:42:24;;;;;;;3.63;1.90;;;23.30;64.60;;;;;;5035922;28;20498;-89